sensor_id;sensor_type;location;lat;lon;timestamp;pressure;altitude;pressure_sealevel;temperature;humidity
11108;BME280;5607;48.302;14.294;2023-03-03T00:00:26;98556.16;;;5.71;82.84
11108;BME280;5607;48.302;14.294;2023-03-03T00:03:19;98555.94;;;5.50;84.32
11108;BME280;5607;48.302;14.294;2023-03-03T00:06:09;98551.19;;;5.44;85.21
11108;BME280;5607;48.302;14.294;2023-03-03T00:08:56;98554.19;;;5.37;85.68
11108;BME280;5607;48.302;14.294;2023-03-03T00:11:44;98560.28;;;5.49;85.35
11108;BME280;5607;48.302;14.294;2023-03-03T00:14:32;98562.63;;;5.52;85.44
11108;BME280;5607;48.302;14.294;2023-03-03T00:17:27;98552.53;;;5.36;86.41
11108;BME280;5607;48.302;14.294;2023-03-03T00:26:20;98553.72;;;5.07;88.17
11108;BME280;5607;48.302;14.294;2023-03-03T00:38:16;98562.84;;;4.87;90.83
11108;BME280;5607;48.302;14.294;2023-03-03T00:41:14;98558.28;;;4.78;91.36
11108;BME280;5607;48.302;14.294;2023-03-03T00:47:36;98553.94;;;4.66;92.62
11108;BME280;5607;48.302;14.294;2023-03-03T00:50:29;98568.31;;;4.70;93.21
11108;BME280;5607;48.302;14.294;2023-03-03T00:53:18;98560.44;;;4.84;92.47
11108;BME280;5607;48.302;14.294;2023-03-03T00:56:05;98567.31;;;4.85;92.46
11108;BME280;5607;48.302;14.294;2023-03-03T00:58:51;98573.72;;;4.79;92.26
11108;BME280;5607;48.302;14.294;2023-03-03T01:01:38;98560.44;;;4.71;92.19
11108;BME280;5607;48.302;14.294;2023-03-03T01:04:25;98566.97;;;4.90;91.79
11108;BME280;5607;48.302;14.294;2023-03-03T01:07:30;98568.53;;;4.79;92.04
11108;BME280;5607;48.302;14.294;2023-03-03T01:10:16;98564.38;;;4.77;91.89
11108;BME280;5607;48.302;14.294;2023-03-03T01:13:04;98563.25;;;4.55;92.77
11108;BME280;5607;48.302;14.294;2023-03-03T01:15:52;98551.03;;;4.45;93.42
11108;BME280;5607;48.302;14.294;2023-03-03T01:18:38;98569.34;;;4.54;93.93
11108;BME280;5607;48.302;14.294;2023-03-03T01:21:27;98573.16;;;4.49;94.60
11108;BME280;5607;48.302;14.294;2023-03-03T01:24:13;98572.34;;;4.61;94.94
11108;BME280;5607;48.302;14.294;2023-03-03T01:27:00;98577.31;;;4.64;93.80
11108;BME280;5607;48.302;14.294;2023-03-03T01:29:46;98567.78;;;4.52;94.95
11108;BME280;5607;48.302;14.294;2023-03-03T01:32:34;98576.25;;;4.41;96.45
11108;BME280;5607;48.302;14.294;2023-03-03T01:35:21;98569.44;;;4.53;95.84
11108;BME280;5607;48.302;14.294;2023-03-03T01:38:08;98570.91;;;4.57;95.37
11108;BME280;5607;48.302;14.294;2023-03-03T01:40:57;98575.00;;;4.47;96.30
11108;BME280;5607;48.302;14.294;2023-03-03T01:43:45;98567.66;;;4.41;97.50
11108;BME280;5607;48.302;14.294;2023-03-03T01:49:41;98564.06;;;4.56;95.80
11108;BME280;5607;48.302;14.294;2023-03-03T01:55:41;98562.63;;;4.90;93.26
11108;BME280;5607;48.302;14.294;2023-03-03T01:58:34;98564.72;;;4.85;93.43
11108;BME280;5607;48.302;14.294;2023-03-03T02:01:25;98570.31;;;4.66;94.29
11108;BME280;5607;48.302;14.294;2023-03-03T02:04:13;98571.94;;;4.54;95.19
11108;BME280;5607;48.302;14.294;2023-03-03T02:07:05;98571.19;;;4.52;95.49
11108;BME280;5607;48.302;14.294;2023-03-03T02:10:12;98571.63;;;4.59;95.71
11108;BME280;5607;48.302;14.294;2023-03-03T02:12:59;98568.19;;;4.58;96.84
11108;BME280;5607;48.302;14.294;2023-03-03T02:15:45;98559.31;;;4.50;97.22
11108;BME280;5607;48.302;14.294;2023-03-03T02:18:32;98562.09;;;4.47;97.99
11108;BME280;5607;48.302;14.294;2023-03-03T02:21:24;98563.22;;;4.43;97.80
11108;BME280;5607;48.302;14.294;2023-03-03T02:24:36;98577.81;;;4.56;96.35
11108;BME280;5607;48.302;14.294;2023-03-03T02:27:26;98577.28;;;4.39;97.68
11108;BME280;5607;48.302;14.294;2023-03-03T02:30:20;98559.66;;;4.18;99.62
11108;BME280;5607;48.302;14.294;2023-03-03T02:33:08;98570.81;;;4.19;100.00
11108;BME280;5607;48.302;14.294;2023-03-03T02:35:54;98568.13;;;4.20;99.89
11108;BME280;5607;48.302;14.294;2023-03-03T02:39:42;98568.75;;;4.11;100.00
11108;BME280;5607;48.302;14.294;2023-03-03T02:42:26;98562.94;;;4.08;100.00
11108;BME280;5607;48.302;14.294;2023-03-03T02:45:15;98557.16;;;4.04;100.00
11108;BME280;5607;48.302;14.294;2023-03-03T02:48:01;98562.97;;;4.20;100.00
11108;BME280;5607;48.302;14.294;2023-03-03T02:50:48;98567.56;;;4.29;100.00
11108;BME280;5607;48.302;14.294;2023-03-03T02:53:35;98561.78;;;4.51;100.00
11108;BME280;5607;48.302;14.294;2023-03-03T02:56:22;98558.47;;;4.49;98.85
11108;BME280;5607;48.302;14.294;2023-03-03T02:59:10;98557.66;;;4.49;98.95
11108;BME280;5607;48.302;14.294;2023-03-03T03:01:56;98566.97;;;4.64;98.25
11108;BME280;5607;48.302;14.294;2023-03-03T03:04:43;98559.44;;;4.74;96.94
11108;BME280;5607;48.302;14.294;2023-03-03T03:07:30;98568.53;;;4.67;97.12
11108;BME280;5607;48.302;14.294;2023-03-03T03:10:16;98564.50;;;4.75;96.78
11108;BME280;5607;48.302;14.294;2023-03-03T03:13:03;98568.75;;;4.76;96.45
11108;BME280;5607;48.302;14.294;2023-03-03T03:15:50;98569.56;;;4.90;95.75
11108;BME280;5607;48.302;14.294;2023-03-03T03:18:36;98571.63;;;4.72;95.85
11108;BME280;5607;48.302;14.294;2023-03-03T03:21:23;98576.78;;;4.72;95.51
11108;BME280;5607;48.302;14.294;2023-03-03T03:24:09;98582.47;;;4.64;94.56
11108;BME280;5607;48.302;14.294;2023-03-03T03:26:56;98571.31;;;4.51;95.09
11108;BME280;5607;48.302;14.294;2023-03-03T03:29:42;98578.09;;;4.39;95.80
11108;BME280;5607;48.302;14.294;2023-03-03T03:32:29;98576.88;;;4.45;95.18
11108;BME280;5607;48.302;14.294;2023-03-03T03:35:16;98571.91;;;4.42;94.48
11108;BME280;5607;48.302;14.294;2023-03-03T03:38:02;98578.72;;;4.30;94.84
11108;BME280;5607;48.302;14.294;2023-03-03T03:40:49;98583.06;;;4.29;95.01
11108;BME280;5607;48.302;14.294;2023-03-03T03:43:35;98584.28;;;4.24;94.98
11108;BME280;5607;48.302;14.294;2023-03-03T03:46:22;98581.28;;;4.17;95.34
11108;BME280;5607;48.302;14.294;2023-03-03T03:49:09;98571.50;;;4.08;94.98
11108;BME280;5607;48.302;14.294;2023-03-03T03:51:55;98537.06;;;3.95;95.28
11108;BME280;5607;48.302;14.294;2023-03-03T03:54:42;98589.84;;;4.18;95.72
11108;BME280;5607;48.302;14.294;2023-03-03T03:57:28;98583.09;;;4.15;95.55
11108;BME280;5607;48.302;14.294;2023-03-03T04:00:16;98600.78;;;4.21;95.38
11108;BME280;5607;48.302;14.294;2023-03-03T04:03:02;98581.63;;;3.98;96.02
11108;BME280;5607;48.302;14.294;2023-03-03T04:05:51;98602.34;;;3.97;96.30
11108;BME280;5607;48.302;14.294;2023-03-03T04:08:38;98595.38;;;3.99;96.41
11108;BME280;5607;48.302;14.294;2023-03-03T04:11:25;98609.16;;;3.85;97.04
11108;BME280;5607;48.302;14.294;2023-03-03T04:14:11;98596.31;;;3.84;96.96
11108;BME280;5607;48.302;14.294;2023-03-03T04:16:58;98616.03;;;3.85;96.76
11108;BME280;5607;48.302;14.294;2023-03-03T04:19:45;98612.63;;;3.84;97.15
11108;BME280;5607;48.302;14.294;2023-03-03T04:22:31;98608.13;;;3.88;97.31
11108;BME280;5607;48.302;14.294;2023-03-03T04:25:19;98604.06;;;3.84;97.51
11108;BME280;5607;48.302;14.294;2023-03-03T04:28:05;98617.91;;;3.83;99.20
11108;BME280;5607;48.302;14.294;2023-03-03T04:30:53;98619.22;;;3.75;100.00
11108;BME280;5607;48.302;14.294;2023-03-03T04:33:40;98610.44;;;3.78;100.00
11108;BME280;5607;48.302;14.294;2023-03-03T04:36:26;98614.34;;;3.71;100.00
11108;BME280;5607;48.302;14.294;2023-03-03T04:39:13;98617.66;;;3.59;100.00
11108;BME280;5607;48.302;14.294;2023-03-03T04:41:59;98608.94;;;3.61;100.00
11108;BME280;5607;48.302;14.294;2023-03-03T04:44:46;98612.81;;;3.40;100.00
11108;BME280;5607;48.302;14.294;2023-03-03T04:47:33;98607.34;;;3.59;100.00
11108;BME280;5607;48.302;14.294;2023-03-03T04:50:19;98612.72;;;3.56;100.00
11108;BME280;5607;48.302;14.294;2023-03-03T04:53:07;98609.69;;;3.49;100.00
11108;BME280;5607;48.302;14.294;2023-03-03T04:55:53;98604.31;;;3.52;100.00
11108;BME280;5607;48.302;14.294;2023-03-03T04:58:41;98605.13;;;3.67;100.00
11108;BME280;5607;48.302;14.294;2023-03-03T05:01:27;98602.69;;;3.78;100.00
11108;BME280;5607;48.302;14.294;2023-03-03T05:04:14;98611.53;;;3.88;100.00
11108;BME280;5607;48.302;14.294;2023-03-03T05:07:01;98607.28;;;3.87;100.00
11108;BME280;5607;48.302;14.294;2023-03-03T05:09:47;98615.09;;;3.73;100.00
11108;BME280;5607;48.302;14.294;2023-03-03T05:12:34;98617.84;;;3.70;100.00
11108;BME280;5607;48.302;14.294;2023-03-03T05:15:21;98619.41;;;3.72;100.00
11108;BME280;5607;48.302;14.294;2023-03-03T05:18:08;98610.66;;;3.75;100.00
11108;BME280;5607;48.302;14.294;2023-03-03T05:20:54;98625.84;;;3.80;100.00
11108;BME280;5607;48.302;14.294;2023-03-03T05:23:41;98620.16;;;3.74;100.00
11108;BME280;5607;48.302;14.294;2023-03-03T05:26:27;98609.69;;;3.49;100.00
11108;BME280;5607;48.302;14.294;2023-03-03T05:29:14;98621.00;;;3.61;100.00
11108;BME280;5607;48.302;14.294;2023-03-03T05:32:00;98627.00;;;3.47;100.00
11108;BME280;5607;48.302;14.294;2023-03-03T05:34:47;98630.59;;;3.44;100.00
11108;BME280;5607;48.302;14.294;2023-03-03T05:37:33;98615.19;;;3.29;100.00
11108;BME280;5607;48.302;14.294;2023-03-03T05:40:20;98629.03;;;3.28;100.00
11108;BME280;5607;48.302;14.294;2023-03-03T05:43:07;98636.97;;;3.24;100.00
11108;BME280;5607;48.302;14.294;2023-03-03T05:45:55;98640.75;;;3.19;100.00
11108;BME280;5607;48.302;14.294;2023-03-03T05:48:42;98649.97;;;3.23;100.00
11108;BME280;5607;48.302;14.294;2023-03-03T05:51:28;98648.59;;;3.17;100.00
11108;BME280;5607;48.302;14.294;2023-03-03T05:54:15;98631.41;;;3.16;100.00
11108;BME280;5607;48.302;14.294;2023-03-03T05:57:02;98661.84;;;3.26;100.00
11108;BME280;5607;48.302;14.294;2023-03-03T05:59:49;98659.44;;;3.22;100.00
11108;BME280;5607;48.302;14.294;2023-03-03T06:02:37;98661.19;;;3.22;100.00
11108;BME280;5607;48.302;14.294;2023-03-03T06:05:24;98664.59;;;3.22;100.00
11108;BME280;5607;48.302;14.294;2023-03-03T06:08:10;98668.56;;;3.28;100.00
11108;BME280;5607;48.302;14.294;2023-03-03T06:10:57;98678.41;;;3.21;100.00
11108;BME280;5607;48.302;14.294;2023-03-03T06:13:44;98674.84;;;3.24;100.00
11108;BME280;5607;48.302;14.294;2023-03-03T06:16:30;98683.31;;;3.26;100.00
11108;BME280;5607;48.302;14.294;2023-03-03T06:19:17;98687.56;;;3.27;100.00
11108;BME280;5607;48.302;14.294;2023-03-03T06:22:04;98695.75;;;3.34;100.00
11108;BME280;5607;48.302;14.294;2023-03-03T06:24:51;98699.94;;;3.36;100.00
11108;BME280;5607;48.302;14.294;2023-03-03T06:27:38;98693.44;;;3.29;100.00
11108;BME280;5607;48.302;14.294;2023-03-03T06:30:24;98692.91;;;3.38;100.00
11108;BME280;5607;48.302;14.294;2023-03-03T06:33:13;98694.03;;;3.48;100.00
11108;BME280;5607;48.302;14.294;2023-03-03T06:36:00;98699.81;;;3.52;100.00
11108;BME280;5607;48.302;14.294;2023-03-03T06:38:46;98701.13;;;3.59;100.00
11108;BME280;5607;48.302;14.294;2023-03-03T06:41:33;98702.75;;;3.60;100.00
11108;BME280;5607;48.302;14.294;2023-03-03T06:44:19;98694.75;;;3.50;100.00
11108;BME280;5607;48.302;14.294;2023-03-03T06:47:06;98707.94;;;3.60;100.00
11108;BME280;5607;48.302;14.294;2023-03-03T06:49:53;98707.84;;;3.62;100.00
11108;BME280;5607;48.302;14.294;2023-03-03T06:52:39;98711.34;;;3.75;100.00
11108;BME280;5607;48.302;14.294;2023-03-03T06:55:26;98721.41;;;3.94;100.00
11108;BME280;5607;48.302;14.294;2023-03-03T06:58:15;98721.66;;;3.89;100.00
11108;BME280;5607;48.302;14.294;2023-03-03T07:01:01;98719.75;;;3.93;100.00
11108;BME280;5607;48.302;14.294;2023-03-03T07:03:48;98721.94;;;3.99;100.00
11108;BME280;5607;48.302;14.294;2023-03-03T07:06:36;98724.44;;;4.00;100.00
11108;BME280;5607;48.302;14.294;2023-03-03T07:09:25;98729.19;;;4.21;100.00
11108;BME280;5607;48.302;14.294;2023-03-03T07:12:15;98729.25;;;4.33;100.00
11108;BME280;5607;48.302;14.294;2023-03-03T07:15:19;98716.81;;;4.26;100.00
11108;BME280;5607;48.302;14.294;2023-03-03T07:18:37;98738.59;;;4.36;100.00
11108;BME280;5607;48.302;14.294;2023-03-03T07:21:30;98737.44;;;4.40;100.00
11108;BME280;5607;48.302;14.294;2023-03-03T07:29:53;98730.88;;;4.76;98.18
11108;BME280;5607;48.302;14.294;2023-03-03T07:32:42;98747.75;;;4.81;98.08
11108;BME280;5607;48.302;14.294;2023-03-03T07:35:43;98736.44;;;4.70;97.79
11108;BME280;5607;48.302;14.294;2023-03-03T07:38:41;98742.50;;;4.96;97.29
11108;BME280;5607;48.302;14.294;2023-03-03T07:41:29;98737.13;;;4.86;97.45
11108;BME280;5607;48.302;14.294;2023-03-03T07:44:20;98745.22;;;5.07;96.15
11108;BME280;5607;48.302;14.294;2023-03-03T07:47:34;98741.34;;;4.87;96.93
11108;BME280;5607;48.302;14.294;2023-03-03T07:50:22;98752.66;;;4.99;96.52
11108;BME280;5607;48.302;14.294;2023-03-03T07:53:14;98751.25;;;5.20;95.72
11108;BME280;5607;48.302;14.294;2023-03-03T07:56:30;98753.53;;;5.25;95.40
11108;BME280;5607;48.302;14.294;2023-03-03T07:59:24;98752.44;;;5.42;94.54
11108;BME280;5607;48.302;14.294;2023-03-03T08:05:38;98751.09;;;5.74;92.94
11108;BME280;5607;48.302;14.294;2023-03-03T08:08:33;98742.19;;;5.78;91.94
11108;BME280;5607;48.302;14.294;2023-03-03T08:11:22;98743.94;;;5.90;91.95
11108;BME280;5607;48.302;14.294;2023-03-03T08:14:10;98750.03;;;5.77;92.23
11108;BME280;5607;48.302;14.294;2023-03-03T08:17:01;98742.09;;;5.67;91.94
11108;BME280;5607;48.302;14.294;2023-03-03T08:19:53;98751.19;;;5.73;92.61
11108;BME280;5607;48.302;14.294;2023-03-03T08:22:41;98741.78;;;5.72;91.69
11108;BME280;5607;48.302;14.294;2023-03-03T08:25:28;98749.84;;;5.92;90.43
11108;BME280;5607;48.302;14.294;2023-03-03T08:28:16;98761.44;;;6.12;89.07
11108;BME280;5607;48.302;14.294;2023-03-03T08:31:03;98760.78;;;6.34;87.48
11108;BME280;5607;48.302;14.294;2023-03-03T08:33:49;98771.56;;;6.28;86.53
11108;BME280;5607;48.302;14.294;2023-03-03T08:36:36;98760.69;;;6.23;85.98
11108;BME280;5607;48.302;14.294;2023-03-03T08:39:23;98767.78;;;6.45;85.16
11108;BME280;5607;48.302;14.294;2023-03-03T08:42:10;98761.88;;;6.43;84.69
11108;BME280;5607;48.302;14.294;2023-03-03T08:44:56;98778.81;;;6.72;83.03
11108;BME280;5607;48.302;14.294;2023-03-03T08:47:43;98776.34;;;6.82;82.71
11108;BME280;5607;48.302;14.294;2023-03-03T08:50:30;98782.81;;;6.77;83.04
11108;BME280;5607;48.302;14.294;2023-03-03T08:53:18;98774.06;;;6.90;82.78
11108;BME280;5607;48.302;14.294;2023-03-03T08:56:05;98784.63;;;7.11;80.93
11108;BME280;5607;48.302;14.294;2023-03-03T08:58:52;98763.81;;;6.76;82.62
11108;BME280;5607;48.302;14.294;2023-03-03T09:01:38;98780.16;;;6.89;82.63
11108;BME280;5607;48.302;14.294;2023-03-03T09:04:25;98779.38;;;7.00;82.04
11108;BME280;5607;48.302;14.294;2023-03-03T09:07:12;98787.03;;;7.25;81.46
11108;BME280;5607;48.302;14.294;2023-03-03T09:09:59;98787.91;;;7.37;80.65
11108;BME280;5607;48.302;14.294;2023-03-03T09:12:47;98789.94;;;7.10;79.84
11108;BME280;5607;48.302;14.294;2023-03-03T09:15:36;98770.56;;;7.03;80.24
11108;BME280;5607;48.302;14.294;2023-03-03T09:18:33;98775.03;;;7.00;80.96
11108;BME280;5607;48.302;14.294;2023-03-03T09:21:25;98774.69;;;7.05;80.39
11108;BME280;5607;48.302;14.294;2023-03-03T09:24:24;98768.78;;;7.38;79.36
11108;BME280;5607;48.302;14.294;2023-03-03T09:27:37;98775.69;;;7.62;78.74
11108;BME280;5607;48.302;14.294;2023-03-03T09:33:30;98772.06;;;7.29;79.97
11108;BME280;5607;48.302;14.294;2023-03-03T09:36:28;98769.09;;;7.22;79.52
11108;BME280;5607;48.302;14.294;2023-03-03T09:57:14;98802.19;;;8.00;73.14
11108;BME280;5607;48.302;14.294;2023-03-03T10:06:08;98790.97;;;8.22;74.27
11108;BME280;5607;48.302;14.294;2023-03-03T10:22:01;98785.38;;;8.72;72.00
11108;BME280;5607;48.302;14.294;2023-03-03T10:25:02;98787.66;;;8.97;70.58
11108;BME280;5607;48.302;14.294;2023-03-03T10:28:17;98779.59;;;9.00;69.98
11108;BME280;5607;48.302;14.294;2023-03-03T10:41:11;98767.25;;;9.13;71.81
11108;BME280;5607;48.302;14.294;2023-03-03T10:50:23;98760.25;;;9.35;71.48
11108;BME280;5607;48.302;14.294;2023-03-03T10:56:37;98745.94;;;9.29;72.74
11108;BME280;5607;48.302;14.294;2023-03-03T11:06:17;98752.13;;;9.28;75.07
11108;BME280;5607;48.302;14.294;2023-03-03T11:09:33;98755.88;;;9.14;74.54
11108;BME280;5607;48.302;14.294;2023-03-03T11:12:29;98741.69;;;9.28;74.66
11108;BME280;5607;48.302;14.294;2023-03-03T11:18:36;98736.84;;;9.65;73.60
11108;BME280;5607;48.302;14.294;2023-03-03T11:21:37;98743.03;;;9.64;73.07
11108;BME280;5607;48.302;14.294;2023-03-03T11:24:41;98743.19;;;10.03;73.04
11108;BME280;5607;48.302;14.294;2023-03-03T11:27:57;98737.00;;;10.04;72.31
11108;BME280;5607;48.302;14.294;2023-03-03T11:37:44;98741.31;;;10.15;70.50
11108;BME280;5607;48.302;14.294;2023-03-03T11:41:00;98732.19;;;9.99;71.42
11108;BME280;5607;48.302;14.294;2023-03-03T11:50:59;98714.25;;;9.45;73.16
11108;BME280;5607;48.302;14.294;2023-03-03T11:54:16;98716.72;;;10.08;71.06
11108;BME280;5607;48.302;14.294;2023-03-03T11:57:43;98715.06;;;10.07;71.14
11108;BME280;5607;48.302;14.294;2023-03-03T12:00:47;98711.31;;;10.49;70.75
11108;BME280;5607;48.302;14.294;2023-03-03T12:03:46;98712.28;;;10.39;70.68
11108;BME280;5607;48.302;14.294;2023-03-03T12:09:51;98707.38;;;10.65;63.00
11108;BME280;5607;48.302;14.294;2023-03-03T12:15:32;98710.97;;;10.83;63.31
11108;BME280;5607;48.302;14.294;2023-03-03T12:18:40;98699.66;;;10.92;61.96
11108;BME280;5607;48.302;14.294;2023-03-03T12:21:49;98692.38;;;10.86;62.72
11108;BME280;5607;48.302;14.294;2023-03-03T12:31:38;98682.06;;;10.85;62.24
11108;BME280;5607;48.302;14.294;2023-03-03T12:34:42;98690.72;;;10.46;62.81
11108;BME280;5607;48.302;14.294;2023-03-03T12:40:37;98676.84;;;10.85;61.51
11108;BME280;5607;48.302;14.294;2023-03-03T12:49:38;98669.97;;;11.03;61.50
11108;BME280;5607;48.302;14.294;2023-03-03T12:55:32;98665.03;;;11.47;60.40
11108;BME280;5607;48.302;14.294;2023-03-03T13:11:12;98664.31;;;12.01;58.13
11108;BME280;5607;48.302;14.294;2023-03-03T13:14:17;98649.00;;;11.69;59.21
11108;BME280;5607;48.302;14.294;2023-03-03T13:23:06;98655.97;;;12.33;56.99
11108;BME280;5607;48.302;14.294;2023-03-03T13:26:09;98648.13;;;12.51;56.77
11108;BME280;5607;48.302;14.294;2023-03-03T13:29:06;98659.03;;;12.82;54.91
11108;BME280;5607;48.302;14.294;2023-03-03T13:31:59;98652.63;;;12.59;55.22
11108;BME280;5607;48.302;14.294;2023-03-03T13:37:48;98650.75;;;12.51;55.05
11108;BME280;5607;48.302;14.294;2023-03-03T13:40:44;98639.28;;;12.34;55.11
11108;BME280;5607;48.302;14.294;2023-03-03T13:50:10;98636.66;;;12.70;54.48
11108;BME280;5607;48.302;14.294;2023-03-03T13:53:17;98630.94;;;12.49;54.74
11108;BME280;5607;48.302;14.294;2023-03-03T13:59:27;98621.34;;;12.39;54.97
11108;BME280;5607;48.302;14.294;2023-03-03T14:05:52;98609.44;;;12.27;55.30
11108;BME280;5607;48.302;14.294;2023-03-03T14:08:54;98613.47;;;12.39;54.22
11108;BME280;5607;48.302;14.294;2023-03-03T14:12:01;98611.38;;;12.25;54.78
11108;BME280;5607;48.302;14.294;2023-03-03T14:21:23;98607.84;;;11.99;55.96
11108;BME280;5607;48.302;14.294;2023-03-03T14:24:16;98600.72;;;11.91;55.56
11108;BME280;5607;48.302;14.294;2023-03-03T14:27:20;98604.66;;;12.05;56.58
11108;BME280;5607;48.302;14.294;2023-03-03T14:38:45;98595.41;;;11.83;59.02
11108;BME280;5607;48.302;14.294;2023-03-03T14:41:40;98598.94;;;11.54;58.69
11108;BME280;5607;48.302;14.294;2023-03-03T14:44:35;98609.38;;;11.64;58.66
11108;BME280;5607;48.302;14.294;2023-03-03T14:47:24;98611.94;;;11.46;59.14
11108;BME280;5607;48.302;14.294;2023-03-03T14:53:37;98603.47;;;11.62;58.88
11108;BME280;5607;48.302;14.294;2023-03-03T14:56:29;98608.75;;;11.43;57.65
11108;BME280;5607;48.302;14.294;2023-03-03T14:59:23;98606.91;;;11.63;57.86
11108;BME280;5607;48.302;14.294;2023-03-03T15:05:33;98607.19;;;12.15;56.22
11108;BME280;5607;48.302;14.294;2023-03-03T15:08:30;98589.44;;;11.91;56.11
11108;BME280;5607;48.302;14.294;2023-03-03T15:11:24;98600.22;;;11.88;56.15
11108;BME280;5607;48.302;14.294;2023-03-03T15:14:17;98590.88;;;11.75;56.31
11108;BME280;5607;48.302;14.294;2023-03-03T15:17:24;98600.94;;;11.70;56.21
11108;BME280;5607;48.302;14.294;2023-03-03T15:26:47;98609.13;;;11.57;56.82
11108;BME280;5607;48.302;14.294;2023-03-03T15:29:41;98611.56;;;11.69;55.75
11108;BME280;5607;48.302;14.294;2023-03-03T15:32:54;98603.81;;;11.49;56.30
11108;BME280;5607;48.302;14.294;2023-03-03T15:35:53;98609.88;;;11.50;56.43
11108;BME280;5607;48.302;14.294;2023-03-03T15:38:51;98609.78;;;11.69;56.26
11108;BME280;5607;48.302;14.294;2023-03-03T15:41:46;98602.44;;;11.45;56.25
11108;BME280;5607;48.302;14.294;2023-03-03T15:48:14;98610.75;;;11.31;56.79
11108;BME280;5607;48.302;14.294;2023-03-03T15:51:12;98616.44;;;11.17;57.69
11108;BME280;5607;48.302;14.294;2023-03-03T16:04:10;98610.69;;;11.03;59.44
11108;BME280;5607;48.302;14.294;2023-03-03T16:07:29;98621.69;;;11.07;60.12
11108;BME280;5607;48.302;14.294;2023-03-03T16:16:56;98622.41;;;10.80;63.64
11108;BME280;5607;48.302;14.294;2023-03-03T16:29:44;98638.66;;;10.64;66.22
11108;BME280;5607;48.302;14.294;2023-03-03T16:35:23;98638.25;;;10.40;67.35
11108;BME280;5607;48.302;14.294;2023-03-03T16:38:31;98650.44;;;10.30;68.40
11108;BME280;5607;48.302;14.294;2023-03-03T16:41:31;98652.06;;;10.21;68.99
11108;BME280;5607;48.302;14.294;2023-03-03T16:44:31;98642.66;;;9.99;69.50
11108;BME280;5607;48.302;14.294;2023-03-03T16:50:53;98656.25;;;9.93;71.68
11108;BME280;5607;48.302;14.294;2023-03-03T16:57:08;98662.00;;;9.87;73.08
11108;BME280;5607;48.302;14.294;2023-03-03T17:00:18;98666.44;;;9.65;74.75
11108;BME280;5607;48.302;14.294;2023-03-03T17:06:52;98676.81;;;9.56;76.69
11108;BME280;5607;48.302;14.294;2023-03-03T17:09:58;98679.13;;;9.49;77.42
11108;BME280;5607;48.302;14.294;2023-03-03T17:19:52;98687.28;;;9.35;79.32
11108;BME280;5607;48.302;14.294;2023-03-03T17:29:15;98709.97;;;9.23;80.90
11108;BME280;5607;48.302;14.294;2023-03-03T17:35:26;98716.47;;;9.08;83.07
11108;BME280;5607;48.302;14.294;2023-03-03T17:41:32;98709.94;;;9.13;83.45
11108;BME280;5607;48.302;14.294;2023-03-03T17:44:32;98715.38;;;9.10;83.53
11108;BME280;5607;48.302;14.294;2023-03-03T17:47:30;98729.00;;;9.14;84.11
11108;BME280;5607;48.302;14.294;2023-03-03T17:53:36;98730.38;;;8.97;85.03
11108;BME280;5607;48.302;14.294;2023-03-03T17:56:40;98736.22;;;9.10;85.07
11108;BME280;5607;48.302;14.294;2023-03-03T18:08:44;98745.91;;;8.87;86.34
11108;BME280;5607;48.302;14.294;2023-03-03T18:12:06;98750.34;;;8.76;87.05
11108;BME280;5607;48.302;14.294;2023-03-03T18:23:47;98765.25;;;8.74;87.01
11108;BME280;5607;48.302;14.294;2023-03-03T18:26:39;98764.25;;;8.86;86.22
11108;BME280;5607;48.302;14.294;2023-03-03T18:29:27;98762.41;;;8.77;86.78
11108;BME280;5607;48.302;14.294;2023-03-03T18:32:22;98768.34;;;8.56;87.68
11108;BME280;5607;48.302;14.294;2023-03-03T18:35:39;98761.00;;;8.61;88.04
11108;BME280;5607;48.302;14.294;2023-03-03T18:38:31;98760.81;;;8.53;88.38
11108;BME280;5607;48.302;14.294;2023-03-03T18:41:29;98757.38;;;8.53;88.57
11108;BME280;5607;48.302;14.294;2023-03-03T18:44:26;98771.81;;;8.46;88.72
11108;BME280;5607;48.302;14.294;2023-03-03T18:47:13;98778.09;;;8.43;89.64
11108;BME280;5607;48.302;14.294;2023-03-03T18:50:30;98762.09;;;8.25;90.31
11108;BME280;5607;48.302;14.294;2023-03-03T18:53:25;98771.72;;;8.36;90.55
11108;BME280;5607;48.302;14.294;2023-03-03T18:56:43;98776.31;;;8.32;90.26
11108;BME280;5607;48.302;14.294;2023-03-03T19:05:23;98772.75;;;8.11;91.61
11108;BME280;5607;48.302;14.294;2023-03-03T19:09:16;98779.84;;;7.75;93.43
11108;BME280;5607;48.302;14.294;2023-03-03T19:11:50;98780.66;;;7.76;94.27
11108;BME280;5607;48.302;14.294;2023-03-03T19:14:39;98778.06;;;7.76;94.43
11108;BME280;5607;48.302;14.294;2023-03-03T19:20:15;98770.63;;;7.94;93.66
11108;BME280;5607;48.302;14.294;2023-03-03T19:23:11;98773.13;;;7.84;93.97
11108;BME280;5607;48.302;14.294;2023-03-03T19:26:18;98786.47;;;7.79;94.76
11108;BME280;5607;48.302;14.294;2023-03-03T19:45:27;98781.19;;;7.35;98.23
11108;BME280;5607;48.302;14.294;2023-03-03T19:57:15;98775.34;;;7.20;99.71
11108;BME280;5607;48.302;14.294;2023-03-03T20:03:33;98782.03;;;7.11;100.00
11108;BME280;5607;48.302;14.294;2023-03-03T20:06:35;98784.91;;;7.19;100.00
11108;BME280;5607;48.302;14.294;2023-03-03T20:15:15;98785.34;;;6.89;100.00
11108;BME280;5607;48.302;14.294;2023-03-03T20:27:22;98791.81;;;7.08;100.00
11108;BME280;5607;48.302;14.294;2023-03-03T20:42:17;98782.31;;;6.47;100.00
11108;BME280;5607;48.302;14.294;2023-03-03T20:48:15;98792.59;;;6.36;100.00
11108;BME280;5607;48.302;14.294;2023-03-03T21:03:42;98797.56;;;6.52;100.00
11108;BME280;5607;48.302;14.294;2023-03-03T21:06:37;98809.16;;;6.59;100.00
11108;BME280;5607;48.302;14.294;2023-03-03T21:09:36;98805.00;;;6.57;100.00
11108;BME280;5607;48.302;14.294;2023-03-03T21:12:30;98813.03;;;6.41;100.00
11108;BME280;5607;48.302;14.294;2023-03-03T21:15:26;98805.06;;;6.31;100.00
11108;BME280;5607;48.302;14.294;2023-03-03T21:18:26;98807.06;;;6.28;100.00
11108;BME280;5607;48.302;14.294;2023-03-03T21:21:12;98812.25;;;6.15;100.00
11108;BME280;5607;48.302;14.294;2023-03-03T21:23:59;98810.50;;;6.03;100.00
11108;BME280;5607;48.302;14.294;2023-03-03T21:29:37;98793.78;;;5.68;100.00
11108;BME280;5607;48.302;14.294;2023-03-03T21:32:43;98805.19;;;5.79;100.00